Time,TemperatureF,DewpointF,PressureIn,WindDirection,WindDirectionDegrees,WindSpeedMPH,WindSpeedGustMPH,Humidity,HourlyPrecipIn,Conditions,Clouds,dailyrainin,SoftwareType,DateUTC
2013-01-22 00:02:00,50.0,47.0,29.56,NW,306,3.0,9.0,91,0.19,,,0.68,,2013-01-21 23:02:00,
2013-01-22 00:12:00,50.0,47.0,29.56,NW,306,3.0,9.0,91,0.19,,,0.68,,2013-01-21 23:12:00,
2013-01-22 00:22:00,49.0,46.0,29.55,WNW,290,0.0,3.0,91,0.12,,,0.71,,2013-01-21 23:22:00,
2013-01-22 00:32:00,49.0,46.0,29.55,WNW,290,2.0,3.0,91,0.11,,,0.71,,2013-01-21 23:32:00,
2013-01-22 00:42:00,49.0,46.0,29.55,WNW,290,2.0,3.0,91,0.11,,,0.71,,2013-01-21 23:42:00,
2013-01-22 00:53:00,50.0,47.0,29.55,NNE,26,1.0,4.0,90,0.08,,,0.70,,2013-01-21 23:53:00,
2013-01-22 01:02:00,50.0,47.0,29.55,NNE,26,0.0,2.0,90,0.04,,,0.70,,2013-01-22 00:02:00,
2013-01-22 01:11:00,50.0,47.0,29.55,NNE,26,0.0,2.0,90,0.04,,,0.70,,2013-01-22 00:11:00,
2013-01-22 01:22:00,50.0,47.0,29.55,NNE,26,0.0,2.0,90,0.00,,,0.70,,2013-01-22 00:22:00,
2013-01-22 01:32:00,51.0,48.0,29.55,NNE,26,2.0,3.0,91,0.00,,,0.70,,2013-01-22 00:32:00,
2013-01-22 01:42:00,51.0,48.0,29.55,NNE,26,2.0,3.0,91,0.00,,,0.70,,2013-01-22 00:42:00,
2013-01-22 01:53:00,51.0,48.0,29.55,NNE,33,2.0,3.0,90,0.00,,,0.70,,2013-01-22 00:53:00,
2013-01-22 02:02:00,52.0,49.0,29.55,NNE,23,4.0,4.0,90,0.00,,,0.70,,2013-01-22 01:02:00,
2013-01-22 02:12:00,52.0,49.0,29.55,NNE,23,4.0,4.0,90,0.00,,,0.70,,2013-01-22 01:12:00,
2013-01-22 02:22:00,50.0,47.0,29.57,WNW,295,1.0,5.0,91,0.13,,,0.83,,2013-01-22 01:22:00,
2013-01-22 02:32:00,50.0,47.0,29.57,WNW,295,1.0,3.0,91,0.13,,,0.83,,2013-01-22 01:32:00,
2013-01-22 02:42:00,50.0,47.0,29.57,WNW,295,1.0,3.0,91,0.13,,,0.83,,2013-01-22 01:42:00,
2013-01-22 02:52:00,50.0,47.0,29.57,WNW,295,2.0,3.0,91,0.13,,,0.83,,2013-01-22 01:52:00,
2013-01-22 03:02:00,50.0,47.0,29.57,WNW,295,3.0,3.0,91,0.13,,,0.83,,2013-01-22 02:02:00,
2013-01-22 03:12:00,50.0,47.0,29.57,WNW,295,3.0,3.0,91,0.13,,,0.83,,2013-01-22 02:12:00,
2013-01-22 03:22:00,49.0,46.0,29.57,WNW,295,0.0,2.0,91,0.01,,,0.83,,2013-01-22 02:22:00,
2013-01-22 03:32:00,50.0,47.0,29.57,WNW,295,0.0,3.0,91,0.01,,,0.83,,2013-01-22 02:32:00,
2013-01-22 03:42:00,50.0,47.0,29.57,WNW,295,0.0,3.0,91,0.01,,,0.83,,2013-01-22 02:42:00,
2013-01-22 03:53:00,50.0,47.0,29.58,WNW,295,0.0,1.0,91,0.01,,,0.83,,2013-01-22 02:53:00,
2013-01-22 04:02:00,50.0,47.0,29.58,WNW,295,0.0,3.0,91,0.01,,,0.83,,2013-01-22 03:02:00,
2013-01-22 04:12:00,50.0,47.0,29.58,WNW,295,0.0,3.0,91,0.01,,,0.83,,2013-01-22 03:12:00,
2013-01-22 04:22:00,50.0,47.0,29.58,WNW,295,0.0,3.0,90,0.01,,,0.83,,2013-01-22 03:22:00,
2013-01-22 04:32:00,50.0,47.0,29.58,WNW,295,2.0,4.0,89,0.01,,,0.83,,2013-01-22 03:32:00,
2013-01-22 04:42:00,50.0,47.0,29.58,WNW,295,2.0,4.0,89,0.01,,,0.83,,2013-01-22 03:42:00,
2013-01-22 04:52:00,51.0,47.0,29.57,WNW,295,0.0,3.0,86,0.00,,,0.83,,2013-01-22 03:52:00,
2013-01-22 05:02:00,51.0,47.0,29.57,WNW,302,2.0,5.0,85,0.00,,,0.83,,2013-01-22 04:02:00,
2013-01-22 05:11:00,51.0,47.0,29.57,WNW,302,2.0,5.0,85,0.00,,,0.83,,2013-01-22 04:11:00,
2013-01-22 05:22:00,52.0,47.0,29.58,WNW,282,4.0,8.0,82,0.00,,,0.82,,2013-01-22 04:22:00,
2013-01-22 05:32:00,52.0,46.0,29.58,WNW,290,8.0,10.0,80,0.00,,,0.82,,2013-01-22 04:32:00,
2013-01-22 05:42:00,52.0,46.0,29.58,WNW,290,8.0,10.0,80,0.00,,,0.82,,2013-01-22 04:42:00,
2013-01-22 05:52:00,52.0,46.0,29.58,WNW,300,2.0,6.0,80,0.00,,,0.82,,2013-01-22 04:52:00,
2013-01-22 06:02:00,51.0,45.0,29.58,NW,306,2.0,3.0,81,0.00,,,0.79,,2013-01-22 05:02:00,
2013-01-22 06:11:00,51.0,45.0,29.58,NW,306,2.0,3.0,81,0.00,,,0.79,,2013-01-22 05:11:00,
2013-01-22 06:22:00,52.0,46.0,29.59,NW,313,1.0,3.0,81,0.00,,,0.79,,2013-01-22 05:22:00,
2013-01-22 06:32:00,52.0,46.0,29.59,NW,313,2.0,3.0,81,0.00,,,0.79,,2013-01-22 05:32:00,
2013-01-22 06:42:00,52.0,46.0,29.59,NW,313,2.0,3.0,81,0.00,,,0.79,,2013-01-22 05:42:00,
2013-01-22 06:52:00,52.0,46.0,29.60,WNW,292,6.0,14.0,80,0.00,,,0.78,,2013-01-22 05:52:00,
2013-01-22 07:02:00,53.0,47.0,29.60,WNW,294,7.0,18.0,79,0.00,,,0.77,,2013-01-22 06:02:00,
2013-01-22 07:11:00,53.0,47.0,29.60,WNW,294,7.0,18.0,79,0.00,,,0.77,,2013-01-22 06:11:00,
2013-01-22 07:22:00,53.0,45.0,29.61,West,274,9.0,18.0,75,0.00,,,0.73,,2013-01-22 06:22:00,
2013-01-22 07:32:00,53.0,45.0,29.61,WNW,296,14.0,20.0,74,0.00,,,0.73,,2013-01-22 06:32:00,
2013-01-22 07:42:00,53.0,45.0,29.61,WNW,296,14.0,20.0,74,0.00,,,0.73,,2013-01-22 06:42:00,
2013-01-22 07:52:00,53.0,45.0,29.61,West,270,11.0,16.0,74,0.00,,,0.73,,2013-01-22 06:52:00,
2013-01-22 08:02:00,53.0,44.0,29.62,WNW,295,11.0,16.0,71,0.00,,,0.73,,2013-01-22 07:02:00,
2013-01-22 08:11:00,53.0,44.0,29.62,WNW,295,11.0,16.0,71,0.00,,,0.73,,2013-01-22 07:11:00,
2013-01-22 08:22:00,53.0,44.0,29.63,West,267,15.0,19.0,71,0.00,,,0.73,,2013-01-22 07:22:00,
2013-01-22 08:32:00,53.0,43.0,29.63,West,281,10.0,19.0,70,0.00,,,0.73,,2013-01-22 07:32:00,
2013-01-22 08:42:00,53.0,43.0,29.63,West,281,10.0,19.0,70,0.00,,,0.73,,2013-01-22 07:42:00,
2013-01-22 08:52:00,53.0,42.0,29.64,WNW,288,17.0,19.0,66,0.00,,,0.73,,2013-01-22 07:52:00,
2013-01-22 09:02:00,54.0,44.0,29.65,West,281,11.0,16.0,69,0.00,,,0.73,,2013-01-22 08:02:00,
2013-01-22 09:11:00,54.0,44.0,29.65,West,281,11.0,16.0,69,0.00,,,0.73,,2013-01-22 08:11:00,
2013-01-22 09:22:00,54.0,45.0,29.65,WSW,257,3.0,22.0,72,0.00,,,0.72,,2013-01-22 08:22:00,
2013-01-22 09:32:00,53.0,44.0,29.66,West,260,14.0,29.0,71,0.00,,,0.72,,2013-01-22 08:32:00,
2013-01-22 09:42:00,53.0,44.0,29.66,West,260,14.0,29.0,71,0.00,,,0.72,,2013-01-22 08:42:00,
2013-01-22 09:52:00,54.0,44.0,29.67,West,266,19.0,23.0,68,0.00,,,0.71,,2013-01-22 08:52:00,
2013-01-22 10:02:00,54.0,44.0,29.67,West,266,10.0,18.0,69,0.00,,,0.71,,2013-01-22 09:02:00,
2013-01-22 10:11:00,54.0,44.0,29.67,West,266,10.0,18.0,69,0.00,,,0.71,,2013-01-22 09:11:00,
2013-01-22 10:22:00,54.0,43.0,29.68,West,263,18.0,31.0,66,0.00,,,0.71,,2013-01-22 09:22:00,
2013-01-22 10:32:00,55.0,43.0,29.67,West,269,12.0,18.0,65,0.00,,,0.70,,2013-01-22 09:32:00,
2013-01-22 10:42:00,55.0,43.0,29.67,West,269,12.0,18.0,65,0.00,,,0.70,,2013-01-22 09:42:00,
2013-01-22 10:52:00,55.0,43.0,29.68,SW,215,10.0,23.0,65,0.00,,,0.70,,2013-01-22 09:52:00,
2013-01-22 11:01:00,55.0,44.0,29.69,West,264,17.0,19.0,66,0.00,,,0.70,,2013-01-22 10:01:00,
2013-01-22 11:11:00,55.0,44.0,29.69,West,264,17.0,19.0,66,0.00,,,0.70,,2013-01-22 10:11:00,
2013-01-22 11:22:00,55.0,43.0,29.69,SW,224,16.0,26.0,64,0.00,,,0.63,,2013-01-22 10:22:00,
2013-01-22 11:32:00,55.0,42.0,29.69,West,269,7.0,24.0,62,0.00,,,0.62,,2013-01-22 10:32:00,
2013-01-22 11:42:00,55.0,42.0,29.69,West,269,7.0,24.0,62,0.00,,,0.62,,2013-01-22 10:42:00,
2013-01-22 11:52:00,55.0,42.0,29.69,West,264,17.0,23.0,62,0.00,,,0.62,,2013-01-22 10:52:00,
2013-01-22 12:02:00,55.0,42.0,29.69,West,276,21.0,27.0,62,0.00,,,0.62,,2013-01-22 11:02:00,
2013-01-22 12:11:00,55.0,42.0,29.69,West,276,21.0,27.0,62,0.00,,,0.62,,2013-01-22 11:11:00,
2013-01-22 12:22:00,55.0,42.0,29.69,WSW,252,17.0,23.0,61,0.00,,,0.62,,2013-01-22 11:22:00,
2013-01-22 12:32:00,55.0,41.0,29.69,WSW,238,16.0,30.0,59,0.00,,,0.62,,2013-01-22 11:32:00,
2013-01-22 12:42:00,55.0,41.0,29.69,WSW,238,16.0,30.0,59,0.00,,,0.62,,2013-01-22 11:42:00,
2013-01-22 12:53:00,55.0,41.0,29.68,West,266,14.0,27.0,59,0.00,,,0.62,,2013-01-22 11:53:00,
2013-01-22 13:02:00,55.0,41.0,29.68,West,266,14.0,27.0,59,0.00,,,0.62,,2013-01-22 12:02:00,
2013-01-22 13:11:00,55.0,41.0,29.68,West,266,14.0,27.0,59,0.00,,,0.62,,2013-01-22 12:11:00,
2013-01-22 13:22:00,55.0,41.0,29.68,WSW,255,18.0,24.0,59,0.00,,,0.62,,2013-01-22 12:22:00,
2013-01-22 13:32:00,55.0,41.0,29.68,WSW,255,18.0,24.0,59,0.00,,,0.62,,2013-01-22 12:32:00,
2013-01-22 13:43:00,54.0,40.0,29.67,WSW,250,9.0,27.0,59,0.00,,,0.62,,2013-01-22 12:43:00,
2013-01-22 13:53:00,55.0,40.0,29.67,WNW,294,17.0,23.0,56,0.00,,,0.62,,2013-01-22 12:53:00,
2013-01-22 14:02:00,55.0,40.0,29.67,West,261,18.0,19.0,57,0.00,,,0.62,,2013-01-22 13:02:00,
2013-01-22 14:11:00,55.0,40.0,29.67,West,261,18.0,19.0,57,0.00,,,0.62,,2013-01-22 13:11:00,
2013-01-22 14:22:00,55.0,38.0,29.67,West,278,13.0,28.0,53,0.00,,,0.62,,2013-01-22 13:22:00,
2013-01-22 14:32:00,55.0,39.0,29.67,WNW,283,17.0,25.0,55,0.00,,,0.62,,2013-01-22 13:32:00,
2013-01-22 14:42:00,55.0,39.0,29.67,WNW,283,17.0,25.0,55,0.00,,,0.62,,2013-01-22 13:42:00,
2013-01-22 14:53:00,55.0,38.0,29.67,West,275,23.0,30.0,53,0.00,,,0.62,,2013-01-22 13:53:00,
2013-01-22 15:02:00,55.0,38.0,29.68,NW,323,13.0,21.0,53,0.00,,,0.62,,2013-01-22 14:02:00,
2013-01-22 15:12:00,55.0,38.0,29.68,NW,323,13.0,21.0,53,0.00,,,0.62,,2013-01-22 14:12:00,
2013-01-22 15:22:00,52.0,41.0,29.69,WSW,247,17.0,25.0,65,0.00,,,0.62,,2013-01-22 14:22:00,
2013-01-22 15:33:00,49.0,40.0,29.70,WNW,298,9.0,23.0,72,0.00,,,0.62,,2013-01-22 14:33:00,
2013-01-22 15:42:00,49.0,40.0,29.70,WNW,298,9.0,23.0,72,0.00,,,0.62,,2013-01-22 14:42:00,
2013-01-22 15:53:00,48.0,41.0,29.71,NNW,329,9.0,21.0,76,0.02,,,0.64,,2013-01-22 14:53:00,
2013-01-22 16:02:00,49.0,42.0,29.70,West,269,10.0,19.0,78,0.03,,,0.65,,2013-01-22 15:02:00,
2013-01-22 16:12:00,49.0,42.0,29.70,West,269,10.0,19.0,78,0.03,,,0.65,,2013-01-22 15:12:00,
2013-01-22 16:22:00,49.0,43.0,29.70,West,279,4.0,14.0,79,0.05,,,0.67,,2013-01-22 15:22:00,
2013-01-22 16:33:00,50.0,43.0,29.70,WSW,240,28.0,28.0,77,0.06,,,0.68,,2013-01-22 15:33:00,
2013-01-22 16:42:00,50.0,43.0,29.70,WSW,240,28.0,28.0,77,0.06,,,0.68,,2013-01-22 15:42:00,
2013-01-22 16:53:00,48.0,41.0,29.70,NNW,331,4.0,13.0,78,0.04,,,0.68,,2013-01-22 15:53:00,
2013-01-22 17:02:00,49.0,42.0,29.71,West,274,7.0,14.0,77,0.03,,,0.68,,2013-01-22 16:02:00,
2013-01-22 17:12:00,49.0,42.0,29.71,West,274,7.0,14.0,77,0.03,,,0.68,,2013-01-22 16:12:00,
2013-01-22 17:22:00,51.0,44.0,29.70,WSW,249,10.0,17.0,77,0.01,,,0.68,,2013-01-22 16:22:00,
2013-01-22 17:32:00,52.0,43.0,29.70,SW,225,8.0,23.0,71,0.01,,,0.68,,2013-01-22 16:32:00,
2013-01-22 17:42:00,52.0,43.0,29.70,SW,225,8.0,23.0,71,0.01,,,0.68,,2013-01-22 16:42:00,
2013-01-22 17:53:00,49.0,42.0,29.71,NW,311,7.0,21.0,77,0.02,,,0.70,,2013-01-22 16:53:00,
2013-01-22 18:02:00,49.0,42.0,29.72,NW,315,12.0,12.0,78,0.02,,,0.70,,2013-01-22 17:02:00,
2013-01-22 18:12:00,49.0,42.0,29.72,NW,315,12.0,12.0,78,0.02,,,0.70,,2013-01-22 17:12:00,
2013-01-22 18:22:00,48.0,42.0,29.73,NW,321,10.0,13.0,79,0.09,,,0.77,,2013-01-22 17:22:00,
2013-01-22 18:32:00,47.0,42.0,29.73,NNW,338,3.0,8.0,82,0.16,,,0.84,,2013-01-22 17:32:00,
2013-01-22 18:43:00,47.0,42.0,29.73,NNW,338,3.0,8.0,82,0.16,,,0.84,,2013-01-22 17:43:00,
2013-01-22 18:53:00,49.0,42.0,29.74,WNW,298,9.0,19.0,77,0.15,,,0.84,,2013-01-22 17:53:00,
2013-01-22 19:02:00,50.0,42.0,29.74,NNW,344,12.0,14.0,75,0.15,,,0.84,,2013-01-22 18:02:00,
2013-01-22 19:12:00,50.0,42.0,29.74,NNW,344,12.0,14.0,75,0.15,,,0.84,,2013-01-22 18:12:00,
2013-01-22 19:22:00,50.0,41.0,29.75,NNW,342,4.0,19.0,72,0.10,,,0.84,,2013-01-22 18:22:00,
2013-01-22 19:33:00,49.0,42.0,29.76,WNW,300,6.0,10.0,76,0.03,,,0.85,,2013-01-22 18:33:00,
2013-01-22 19:42:00,49.0,42.0,29.76,WNW,300,6.0,10.0,76,0.03,,,0.85,,2013-01-22 18:42:00,
2013-01-22 19:53:00,48.0,42.0,29.76,WNW,302,2.0,3.0,80,0.03,,,0.87,,2013-01-22 18:53:00,
2013-01-22 20:02:00,48.0,42.0,29.76,North,355,3.0,7.0,81,0.03,,,0.87,,2013-01-22 19:02:00,
2013-01-22 20:12:00,48.0,42.0,29.76,North,355,3.0,7.0,81,0.03,,,0.87,,2013-01-22 19:12:00,
2013-01-22 20:22:00,50.0,42.0,29.77,North,350,4.0,14.0,73,0.03,,,0.87,,2013-01-22 19:22:00,
2013-01-22 20:32:00,50.0,41.0,29.77,NNW,331,10.0,10.0,72,0.03,,,0.87,,2013-01-22 19:32:00,
2013-01-22 20:42:00,50.0,41.0,29.77,NNW,331,10.0,10.0,72,0.03,,,0.87,,2013-01-22 19:42:00,
2013-01-22 20:53:00,51.0,42.0,29.77,NNW,327,6.0,14.0,72,0.00,,,0.86,,2013-01-22 19:53:00,
2013-01-22 21:02:00,51.0,42.0,29.76,NW,306,5.0,17.0,72,0.00,,,0.86,,2013-01-22 20:02:00,
2013-01-22 21:12:00,51.0,42.0,29.76,NW,306,5.0,17.0,72,0.00,,,0.86,,2013-01-22 20:12:00,
2013-01-22 21:22:00,51.0,43.0,29.78,NNW,329,2.0,11.0,73,0.00,,,0.86,,2013-01-22 20:22:00,
2013-01-22 21:32:00,50.0,42.0,29.78,North,360,2.0,7.0,75,0.00,,,0.86,,2013-01-22 20:32:00,
2013-01-22 21:42:00,50.0,42.0,29.78,North,360,2.0,7.0,75,0.00,,,0.86,,2013-01-22 20:42:00,
2013-01-22 21:53:00,49.0,42.0,29.79,NNW,330,3.0,7.0,77,0.01,,,0.76,,2013-01-22 20:53:00,
2013-01-22 22:02:00,49.0,43.0,29.78,NW,321,2.0,12.0,80,0.02,,,0.77,,2013-01-22 21:02:00,
2013-01-22 22:12:00,49.0,43.0,29.78,NW,321,2.0,12.0,80,0.02,,,0.77,,2013-01-22 21:12:00,
2013-01-22 22:22:00,49.0,43.0,29.79,NNW,345,3.0,6.0,79,0.02,,,0.77,,2013-01-22 21:22:00,
2013-01-22 22:33:00,49.0,42.0,29.79,North,351,2.0,5.0,77,0.02,,,0.77,,2013-01-22 21:33:00,
2013-01-22 22:42:00,49.0,42.0,29.79,North,351,2.0,5.0,77,0.02,,,0.77,,2013-01-22 21:42:00,
2013-01-22 22:53:00,50.0,43.0,29.79,NW,307,3.0,8.0,76,0.02,,,0.75,,2013-01-22 21:53:00,
2013-01-22 23:02:00,50.0,42.0,29.79,NW,325,2.0,5.0,74,0.00,,,0.64,,2013-01-22 22:02:00,
2013-01-22 23:12:00,50.0,42.0,29.79,NW,325,2.0,5.0,74,0.00,,,0.64,,2013-01-22 22:12:00,
2013-01-22 23:22:00,49.0,42.0,29.80,NW,325,0.0,1.0,76,0.00,,,0.54,,2013-01-22 22:22:00,
2013-01-22 23:32:00,49.0,42.0,29.80,NW,325,0.0,1.0,76,0.00,,,0.54,,2013-01-22 22:32:00,
2013-01-22 23:42:00,49.0,42.0,29.80,NW,325,2.0,2.0,76,0.00,,,0.53,,2013-01-22 22:42:00,
2013-01-22 23:53:00,50.0,42.0,29.80,WNW,290,0.0,7.0,75,0.00,,,0.50,,2013-01-22 22:53:00,